createdAt,value
2017-11-26T00:01:56.804Z,94.00
2017-11-26T00:04:24.347Z,94.00
2017-11-26T00:06:51.907Z,93.90
2017-11-26T00:09:19.448Z,93.90
2017-11-26T00:11:47.009Z,94.00
2017-11-26T00:14:14.579Z,93.80
2017-11-26T00:16:42.116Z,93.70
2017-11-26T00:19:10.447Z,93.80
2017-11-26T00:21:37.981Z,93.80
2017-11-26T00:24:05.524Z,93.70
2017-11-26T00:26:33.110Z,93.90
2017-11-26T00:29:00.651Z,93.60
2017-11-26T00:31:28.226Z,93.50
2017-11-26T00:33:55.761Z,93.30
2017-11-26T00:36:23.301Z,93.20
2017-11-26T00:38:51.620Z,93.10
2017-11-26T00:41:19.148Z,93.00
2017-11-26T00:43:47.500Z,92.90
2017-11-26T00:46:15.080Z,92.90
2017-11-26T00:48:42.647Z,92.90
2017-11-26T00:51:10.988Z,92.70
2017-11-26T00:53:38.573Z,92.60
2017-11-26T00:56:06.140Z,92.70
2017-11-26T00:58:34.445Z,93.00
2017-11-26T01:01:01.987Z,92.90
2017-11-26T01:03:30.309Z,92.60
2017-11-26T01:05:57.868Z,92.20
2017-11-26T01:08:25.451Z,92.30
2017-11-26T01:10:52.992Z,92.30
2017-11-26T01:13:20.555Z,92.40
2017-11-26T01:15:48.212Z,92.30
2017-11-26T01:18:15.742Z,92.50
2017-11-26T01:20:43.344Z,92.70
2017-11-26T01:23:10.907Z,92.60
2017-11-26T01:25:38.452Z,92.60
2017-11-26T01:28:06.022Z,92.60
2017-11-26T01:30:33.588Z,92.50
2017-11-26T01:33:01.156Z,92.50
2017-11-26T01:35:28.692Z,92.50
2017-11-26T01:37:56.247Z,92.40
2017-11-26T01:40:23.805Z,92.50
2017-11-26T01:42:51.378Z,92.60
2017-11-26T01:45:18.956Z,92.80
2017-11-26T01:47:46.516Z,93.00
2017-11-26T01:50:14.051Z,93.00
2017-11-26T01:52:41.599Z,93.20
2017-11-26T01:55:09.206Z,93.20
2017-11-26T01:57:36.792Z,93.30
2017-11-26T02:00:05.184Z,93.50
2017-11-26T02:02:32.775Z,93.40
2017-11-26T02:05:00.342Z,93.30
2017-11-26T02:07:27.914Z,93.20
2017-11-26T02:09:55.499Z,93.10
2017-11-26T02:12:23.076Z,93.10
2017-11-26T02:14:51.444Z,92.20
2017-11-26T02:17:19.766Z,92.20
2017-11-26T02:19:47.373Z,92.10
2017-11-26T02:22:14.955Z,92.00
2017-11-26T02:24:43.272Z,91.60
2017-11-26T02:27:10.843Z,91.60
2017-11-26T02:29:38.413Z,91.40
2017-11-26T02:32:18.205Z,91.30
2017-11-26T02:34:57.569Z,91.00
2017-11-26T02:37:25.142Z,91.30
2017-11-26T02:39:52.688Z,91.20
2017-11-26T02:42:20.362Z,91.50
2017-11-26T02:44:47.903Z,91.50
2017-11-26T02:47:15.437Z,91.80
2017-11-26T02:49:43.775Z,91.20
2017-11-26T02:52:11.333Z,91.10
2017-11-26T02:54:38.928Z,90.80
2017-11-26T02:57:07.235Z,90.30
2017-11-26T02:59:34.816Z,90.60
2017-11-26T03:02:02.356Z,90.60
2017-11-26T03:04:29.900Z,90.70
2017-11-26T03:06:58.228Z,90.20
2017-11-26T03:09:25.794Z,90.20
2017-11-26T03:11:53.358Z,90.00
2017-11-26T03:14:20.903Z,90.20
2017-11-26T03:16:48.469Z,90.10
2017-11-26T03:19:17.632Z,90.00
2017-11-26T03:21:45.196Z,89.90
2017-11-26T03:24:12.751Z,89.70
2017-11-26T03:26:40.316Z,90.00
2017-11-26T03:29:07.889Z,90.10
2017-11-26T03:31:35.448Z,90.30
2017-11-26T03:34:04.900Z,90.50
2017-11-26T03:36:32.443Z,90.50
2017-11-26T03:38:59.984Z,90.70
2017-11-26T03:41:27.583Z,90.60
2017-11-26T03:43:55.120Z,90.60
2017-11-26T03:46:22.720Z,90.70
2017-11-26T03:48:51.050Z,90.60
2017-11-26T03:51:18.598Z,90.60
2017-11-26T03:53:46.159Z,90.60
2017-11-26T03:56:13.705Z,90.90
2017-11-26T03:58:41.278Z,91.00
2017-11-26T04:01:08.947Z,91.10
2017-11-26T04:03:36.492Z,91.40
2017-11-26T04:06:04.039Z,91.50
2017-11-26T04:08:31.587Z,92.30
2017-11-26T04:10:59.912Z,92.70
2017-11-26T04:13:28.229Z,92.80
2017-11-26T04:15:56.555Z,92.60
2017-11-26T04:18:24.142Z,92.40
2017-11-26T04:20:51.684Z,91.90
2017-11-26T04:23:19.253Z,91.90
2017-11-26T04:25:46.797Z,91.80
2017-11-26T04:28:14.387Z,91.70
2017-11-26T04:30:41.926Z,91.50
2017-11-26T04:33:09.489Z,91.50
2017-11-26T04:35:37.040Z,91.40
2017-11-26T04:38:04.582Z,91.30
2017-11-26T04:40:32.182Z,91.30
2017-11-26T04:42:59.735Z,91.30
2017-11-26T04:45:27.293Z,91.40
2017-11-26T04:47:54.834Z,91.70
2017-11-26T04:50:22.417Z,91.50
2017-11-26T04:52:49.980Z,92.10
2017-11-26T04:55:17.524Z,92.10
2017-11-26T04:57:45.082Z,92.10
2017-11-26T05:00:12.644Z,92.40
2017-11-26T05:02:40.229Z,92.30
2017-11-26T05:05:07.795Z,92.00
2017-11-26T05:07:36.120Z,91.90
2017-11-26T05:10:03.733Z,91.90
2017-11-26T05:12:31.276Z,91.90
2017-11-26T05:14:58.840Z,91.50
2017-11-26T05:17:26.379Z,91.10
2017-11-26T05:19:53.915Z,91.10
2017-11-26T05:22:21.480Z,90.90
2017-11-26T05:24:49.017Z,90.80
2017-11-26T05:27:17.372Z,90.40
2017-11-26T05:29:44.928Z,90.40
2017-11-26T05:32:12.472Z,90.40
2017-11-26T05:34:40.035Z,90.30
2017-11-26T05:37:07.578Z,90.60
2017-11-26T05:39:35.183Z,90.60
2017-11-26T05:42:02.715Z,90.90
2017-11-26T05:44:30.244Z,90.50
2017-11-26T05:46:57.836Z,90.70
2017-11-26T05:49:25.367Z,90.40
2017-11-26T05:51:53.015Z,90.30
2017-11-26T05:54:20.552Z,90.40
2017-11-26T05:56:48.094Z,90.60
2017-11-26T05:59:15.667Z,90.40
2017-11-26T06:01:43.208Z,90.30
2017-11-26T06:04:10.775Z,90.40
2017-11-26T06:06:38.306Z,90.30
2017-11-26T06:09:05.839Z,90.70
2017-11-26T06:11:33.383Z,91.00
2017-11-26T06:14:01.676Z,90.90
2017-11-26T06:16:29.241Z,90.90
2017-11-26T06:18:56.775Z,91.00
2017-11-26T06:21:25.110Z,91.20
2017-11-26T06:23:52.645Z,91.30
2017-11-26T06:26:20.196Z,91.50
2017-11-26T06:28:47.752Z,91.60
2017-11-26T06:31:15.285Z,91.10
2017-11-26T06:33:43.612Z,91.20
2017-11-26T06:36:11.174Z,91.20
2017-11-26T06:38:38.740Z,91.10
2017-11-26T06:41:06.280Z,91.20
2017-11-26T06:43:33.827Z,91.20
2017-11-26T06:46:01.399Z,91.10
2017-11-26T06:48:28.977Z,91.10
2017-11-26T06:50:56.636Z,91.10
2017-11-26T06:53:24.177Z,91.20
2017-11-26T06:55:51.715Z,91.40
2017-11-26T06:58:20.875Z,91.40
2017-11-26T07:00:48.422Z,91.70
2017-11-26T07:03:16.102Z,91.40
2017-11-26T07:05:43.657Z,91.60
2017-11-26T07:08:11.184Z,91.70
2017-11-26T07:10:38.777Z,91.80
2017-11-26T07:13:06.360Z,92.00
2017-11-26T07:15:33.913Z,92.20
2017-11-26T07:18:01.484Z,92.10
2017-11-26T07:20:29.798Z,92.20
2017-11-26T07:22:57.371Z,92.10
2017-11-26T07:25:24.919Z,92.20
2017-11-26T07:27:52.488Z,92.30
2017-11-26T07:30:20.047Z,92.20
2017-11-26T07:32:47.585Z,92.10
2017-11-26T07:35:15.932Z,92.50
2017-11-26T07:37:43.487Z,92.40
2017-11-26T07:40:11.057Z,92.50
2017-11-26T07:42:38.678Z,92.40
2017-11-26T07:45:06.259Z,92.50
2017-11-26T07:47:33.812Z,92.10
2017-11-26T07:50:01.339Z,92.00
2017-11-26T07:52:28.904Z,92.20
2017-11-26T07:54:56.452Z,92.50
2017-11-26T07:57:23.988Z,92.30
2017-11-26T07:59:51.564Z,92.50
2017-11-26T08:02:25.921Z,93.10
2017-11-26T08:04:53.861Z,93.10
2017-11-26T08:07:21.433Z,93.40
2017-11-26T08:09:48.992Z,93.70
2017-11-26T08:12:16.564Z,93.70
2017-11-26T08:14:44.108Z,94.00
2017-11-26T08:17:11.690Z,94.10
2017-11-26T08:19:39.224Z,94.10
2017-11-26T08:22:06.761Z,94.10
2017-11-26T08:24:35.097Z,93.90
2017-11-26T08:27:02.632Z,93.80
2017-11-26T08:29:30.184Z,93.90
2017-11-26T08:31:57.880Z,93.70
2017-11-26T08:34:25.473Z,93.50
2017-11-26T08:36:53.003Z,93.60
2017-11-26T08:39:20.696Z,92.90
2017-11-26T08:41:48.659Z,92.30
2017-11-26T08:44:16.996Z,92.60
2017-11-26T08:46:44.553Z,92.50
2017-11-26T08:49:12.178Z,92.30
2017-11-26T08:51:39.766Z,91.90
2017-11-26T08:54:07.303Z,91.90
2017-11-26T08:56:35.672Z,91.30
2017-11-26T08:59:03.248Z,91.30
2017-11-26T09:01:32.473Z,91.30
2017-11-26T09:04:00.021Z,91.30
2017-11-26T09:06:30.044Z,91.50
2017-11-26T09:09:02.238Z,90.60
2017-11-26T09:11:30.525Z,90.40
2017-11-26T09:13:58.313Z,90.10
2017-11-26T09:16:25.915Z,90.30
2017-11-26T09:18:53.576Z,89.20
2017-11-26T09:21:21.121Z,90.40
2017-11-26T09:24:03.663Z,90.20
2017-11-26T09:26:31.195Z,88.30
2017-11-26T09:28:59.496Z,90.20
2017-11-26T09:31:27.038Z,90.10
2017-11-26T09:33:55.348Z,89.30
2017-11-26T09:36:22.912Z,89.30
2017-11-26T09:38:50.443Z,90.20
2017-11-26T09:41:18.009Z,90.10
2017-11-26T09:43:58.813Z,88.70
2017-11-26T09:46:26.381Z,89.80
2017-11-26T09:48:53.917Z,89.50
2017-11-26T09:51:40.644Z,88.50
2017-11-26T09:54:08.244Z,89.20
2017-11-26T09:56:36.577Z,89.90
2017-11-26T09:59:04.112Z,89.80
2017-11-26T10:01:31.682Z,89.80
2017-11-26T10:03:59.217Z,89.50
2017-11-26T10:06:26.771Z,89.80
2017-11-26T10:08:55.086Z,89.30
2017-11-26T10:11:22.648Z,89.40
2017-11-26T10:13:50.244Z,89.00
2017-11-26T10:16:17.788Z,89.40
2017-11-26T10:18:45.320Z,89.40
2017-11-26T10:21:12.875Z,89.80
2017-11-26T10:23:40.853Z,89.50
2017-11-26T10:26:13.835Z,90.30
2017-11-26T10:28:41.369Z,89.20
2017-11-26T10:31:09.672Z,89.20
2017-11-26T10:33:37.211Z,89.20
2017-11-26T10:36:04.809Z,90.60
2017-11-26T10:38:32.371Z,89.90
2017-11-26T10:41:00.676Z,89.20
2017-11-26T10:43:28.299Z,89.20
2017-11-26T10:48:56.040Z,88.90
2017-11-26T10:51:24.365Z,89.70
2017-11-26T10:53:51.903Z,89.70
2017-11-26T10:56:20.832Z,89.50
2017-11-26T10:58:48.408Z,86.90
2017-11-26T11:01:15.991Z,87.40
2017-11-26T11:03:44.300Z,87.70
2017-11-26T11:06:11.854Z,87.70
2017-11-26T11:08:45.759Z,87.80
2017-11-26T11:11:13.336Z,88.20
2017-11-26T11:13:44.805Z,88.20
2017-11-26T11:16:12.386Z,88.30
2017-11-26T11:18:39.947Z,89.40
2017-11-26T11:21:07.529Z,90.20
2017-11-26T11:23:35.105Z,90.20
2017-11-26T11:26:03.415Z,90.10
2017-11-26T11:28:30.948Z,90.10
2017-11-26T11:30:58.531Z,90.10
2017-11-26T11:33:26.080Z,90.00
2017-11-26T11:35:53.650Z,88.40
2017-11-26T11:38:21.196Z,89.50
2017-11-26T11:40:48.836Z,90.60
2017-11-26T11:43:16.428Z,87.80
2017-11-26T11:45:44.018Z,88.30
2017-11-26T11:48:11.551Z,87.50
2017-11-26T11:50:39.107Z,85.60
2017-11-26T11:53:06.789Z,82.90
2017-11-26T11:55:34.345Z,83.70
2017-11-26T11:58:01.891Z,81.00
2017-11-26T12:00:29.459Z,80.10
2017-11-26T12:03:00.284Z,81.20
2017-11-26T12:05:27.855Z,80.10
2017-11-26T12:07:55.457Z,79.50
2017-11-26T12:10:23.861Z,78.20
2017-11-26T12:12:51.433Z,78.20
2017-11-26T12:15:19.016Z,79.20
2017-11-26T12:17:51.064Z,78.90
2017-11-26T12:20:25.470Z,78.70
2017-11-26T12:22:53.056Z,78.40
2017-11-26T12:25:20.592Z,79.30
2017-11-26T12:27:56.256Z,78.60
2017-11-26T12:30:24.692Z,78.60
2017-11-26T12:32:52.301Z,78.60
2017-11-26T12:35:19.913Z,79.10
2017-11-26T12:37:47.453Z,79.70
2017-11-26T12:40:14.995Z,80.50
2017-11-26T12:42:42.548Z,78.90
2017-11-26T12:45:10.084Z,77.80
2017-11-26T12:47:37.628Z,77.80
2017-11-26T12:50:05.192Z,75.80
2017-11-26T12:52:49.634Z,77.60
2017-11-26T12:55:17.197Z,75.90
2017-11-26T12:57:44.743Z,76.60
2017-11-26T13:00:12.277Z,76.50
2017-11-26T13:02:39.816Z,76.30
2017-11-26T13:05:08.231Z,74.10
2017-11-26T13:07:35.777Z,74.10
2017-11-26T13:10:03.333Z,75.90
2017-11-26T13:12:30.920Z,75.50
2017-11-26T13:14:58.489Z,73.70
2017-11-26T13:17:26.106Z,73.50
2017-11-26T13:19:53.670Z,73.90
2017-11-26T13:22:21.213Z,74.70
2017-11-26T13:24:49.516Z,75.70
2017-11-26T13:27:17.073Z,75.80
2017-11-26T13:29:44.623Z,75.50
2017-11-26T13:32:12.178Z,75.50
2017-11-26T13:34:40.505Z,77.10
2017-11-26T13:37:08.816Z,75.80
2017-11-26T13:39:36.403Z,76.00
2017-11-26T13:42:04.056Z,76.00
2017-11-26T13:44:32.363Z,76.80
2017-11-26T13:46:59.904Z,76.90
2017-11-26T13:49:27.440Z,76.80
2017-11-26T13:51:55.980Z,77.40
2017-11-26T13:54:23.584Z,77.40
2017-11-26T13:56:51.920Z,77.50
2017-11-26T13:59:26.099Z,78.10
2017-11-26T14:01:53.709Z,77.20
2017-11-26T14:04:21.248Z,78.30
2017-11-26T14:06:48.997Z,77.70
2017-11-26T14:09:16.643Z,79.10
2017-11-26T14:11:47.067Z,77.90
2017-11-26T14:14:14.674Z,77.90
2017-11-26T14:16:42.239Z,76.80
2017-11-26T14:19:09.792Z,76.00
2017-11-26T14:21:39.293Z,76.20
2017-11-26T14:24:06.862Z,76.70
2017-11-26T14:26:34.411Z,77.30
2017-11-26T14:29:01.969Z,77.20
2017-11-26T14:31:33.499Z,77.90
2017-11-26T14:34:01.801Z,77.90
2017-11-26T14:36:29.346Z,77.80
2017-11-26T14:38:56.889Z,77.30
2017-11-26T14:41:46.875Z,78.10
2017-11-26T14:44:15.184Z,79.00
2017-11-26T14:46:42.770Z,79.00
2017-11-26T14:49:11.111Z,79.50
2017-11-26T14:51:39.633Z,79.70
2017-11-26T14:54:07.192Z,78.80
2017-11-26T14:56:34.785Z,79.70
2017-11-26T14:59:06.729Z,80.20
2017-11-26T15:01:34.285Z,80.80
2017-11-26T15:04:08.480Z,79.90
2017-11-26T15:06:36.033Z,80.00
2017-11-26T15:09:03.620Z,81.20
2017-11-26T15:11:32.155Z,81.10
2017-11-26T15:14:18.186Z,81.10
2017-11-26T15:16:45.764Z,81.20
2017-11-26T15:19:13.369Z,81.50
2017-11-26T15:21:47.561Z,81.80
2017-11-26T15:24:16.014Z,81.50
2017-11-26T15:26:43.633Z,82.10
2017-11-26T15:29:11.193Z,81.70
2017-11-26T15:31:38.735Z,81.50
2017-11-26T15:34:12.786Z,82.30
2017-11-26T15:36:40.341Z,82.30
2017-11-26T15:39:07.892Z,82.00
2017-11-26T15:41:45.595Z,82.00
2017-11-26T15:44:13.206Z,81.50
2017-11-26T15:46:41.564Z,82.10
2017-11-26T15:49:09.143Z,82.10
2017-11-26T15:51:37.718Z,82.10
2017-11-26T15:54:09.851Z,81.90
2017-11-26T15:56:37.444Z,82.60
2017-11-26T15:59:04.991Z,82.50
2017-11-26T16:01:32.567Z,82.00
2017-11-26T16:04:00.150Z,82.60
2017-11-26T16:06:28.493Z,82.90
2017-11-26T16:08:57.601Z,83.00
2017-11-26T16:11:25.144Z,83.00
2017-11-26T16:13:52.741Z,82.80
2017-11-26T16:16:20.327Z,82.40
2017-11-26T16:18:47.948Z,82.80
2017-11-26T16:21:15.554Z,83.10
2017-11-26T16:23:43.112Z,83.20
2017-11-26T16:26:10.677Z,83.60
2017-11-26T16:28:38.240Z,83.70
2017-11-26T16:31:05.817Z,84.40
2017-11-26T16:33:33.389Z,84.30
2017-11-26T16:36:00.972Z,85.10
2017-11-26T16:38:28.601Z,85.10
2017-11-26T16:40:56.248Z,85.80
2017-11-26T16:43:23.824Z,86.60
2017-11-26T16:45:51.415Z,87.20
2017-11-26T16:48:20.503Z,89.80
2017-11-26T16:50:49.487Z,90.20
2017-11-26T16:53:17.872Z,90.50
2017-11-26T16:55:45.429Z,90.50
2017-11-26T16:58:13.773Z,91.30
2017-11-26T17:00:41.337Z,91.30
2017-11-26T17:03:08.927Z,91.60
2017-11-26T17:05:36.491Z,91.70
2017-11-26T17:08:04.032Z,92.10
2017-11-26T17:10:31.610Z,92.40
2017-11-26T17:12:59.170Z,92.70
2017-11-26T17:15:31.106Z,92.90
2017-11-26T17:17:58.686Z,93.10
2017-11-26T17:20:26.237Z,93.30
2017-11-26T17:22:53.816Z,93.30
2017-11-26T17:25:21.353Z,93.20
2017-11-26T17:27:48.934Z,93.50
2017-11-26T17:30:16.496Z,93.20
2017-11-26T17:32:44.821Z,92.90
2017-11-26T17:35:13.200Z,92.70
2017-11-26T17:37:41.536Z,92.70
2017-11-26T17:40:09.176Z,92.70
2017-11-26T17:42:36.721Z,92.90
2017-11-26T17:45:04.309Z,93.10
2017-11-26T17:47:31.877Z,92.70
2017-11-26T17:49:59.468Z,92.70
2017-11-26T17:52:27.805Z,92.60
2017-11-26T17:54:55.450Z,92.60
2017-11-26T17:57:23.032Z,92.40
2017-11-26T18:00:00.926Z,92.40
2017-11-26T18:02:28.502Z,92.50
2017-11-26T18:04:56.032Z,92.60
2017-11-26T18:07:23.593Z,92.60
2017-11-26T18:09:51.235Z,92.60
2017-11-26T18:12:18.864Z,92.60
2017-11-26T18:14:46.418Z,92.40
2017-11-26T18:17:13.996Z,92.50
2017-11-26T18:19:41.530Z,92.40
2017-11-26T18:22:09.093Z,92.50
2017-11-26T18:24:36.658Z,92.40
2017-11-26T18:27:04.241Z,92.40
2017-11-26T18:29:32.565Z,92.60
2017-11-26T18:32:00.111Z,92.50
2017-11-26T18:34:27.681Z,92.40
2017-11-26T18:36:55.228Z,92.30
2017-11-26T18:39:22.787Z,92.10
2017-11-26T18:41:50.338Z,91.90
2017-11-26T18:44:17.901Z,91.90
2017-11-26T18:46:45.489Z,91.80
2017-11-26T18:49:13.043Z,91.80
2017-11-26T18:51:40.632Z,91.80
2017-11-26T18:54:08.192Z,91.50
2017-11-26T18:56:35.768Z,91.40
2017-11-26T18:59:04.129Z,91.60
2017-11-26T19:01:31.692Z,91.50
2017-11-26T19:03:59.262Z,91.50
2017-11-26T19:06:26.800Z,91.30
2017-11-26T19:08:56.272Z,91.30
2017-11-26T19:11:36.489Z,91.30
2017-11-26T19:14:04.052Z,91.20
2017-11-26T19:16:31.588Z,91.00
2017-11-26T19:19:01.184Z,90.80
2017-11-26T19:21:28.741Z,90.90
2017-11-26T19:23:56.338Z,90.90
2017-11-26T19:26:23.881Z,90.90
2017-11-26T19:28:51.443Z,90.90
2017-11-26T19:31:19.019Z,90.90
2017-11-26T19:33:46.593Z,91.00
2017-11-26T19:36:16.905Z,90.70
2017-11-26T19:38:44.479Z,90.70
2017-11-26T19:41:12.849Z,90.60
2017-11-26T19:43:41.884Z,90.70
2017-11-26T19:46:09.459Z,90.60
2017-11-26T19:48:39.310Z,90.60
2017-11-26T19:51:06.860Z,90.80
2017-11-26T19:53:44.252Z,90.60
2017-11-26T19:56:11.887Z,90.40
2017-11-26T19:58:45.737Z,90.30
2017-11-26T20:01:19.396Z,90.40
2017-11-26T20:03:46.953Z,90.20
2017-11-26T20:06:14.501Z,90.40
2017-11-26T20:09:06.161Z,90.50
2017-11-26T20:11:33.712Z,90.60
2017-11-26T20:14:01.272Z,90.80
2017-11-26T20:16:28.808Z,91.00
2017-11-26T20:18:56.359Z,91.10
2017-11-26T20:21:23.917Z,91.30
2017-11-26T20:23:51.459Z,91.50
2017-11-26T20:26:19.767Z,91.80
2017-11-26T20:28:47.305Z,91.80
2017-11-26T20:31:15.605Z,92.10
2017-11-26T20:33:55.305Z,92.00
2017-11-26T20:36:22.851Z,92.20
2017-11-26T20:38:50.431Z,92.30
2017-11-26T20:41:18.752Z,92.60
2017-11-26T20:43:46.288Z,92.30
2017-11-26T20:46:14.601Z,92.20
2017-11-26T20:48:42.268Z,92.20
2017-11-26T20:51:09.815Z,92.10
2017-11-26T20:53:37.349Z,92.30
2017-11-26T20:56:04.898Z,91.90
2017-11-26T20:58:33.218Z,92.10
2017-11-26T21:01:01.153Z,92.10
2017-11-26T21:03:33.107Z,92.40
2017-11-26T21:06:01.450Z,92.40
2017-11-26T21:08:29.776Z,92.50
2017-11-26T21:10:58.113Z,92.50
2017-11-26T21:13:25.723Z,92.40
2017-11-26T21:15:53.272Z,92.40
2017-11-26T21:18:21.586Z,92.60
2017-11-26T21:20:52.445Z,92.50
2017-11-26T21:23:25.908Z,92.30
2017-11-26T21:25:53.449Z,92.40
2017-11-26T21:28:21.776Z,92.50
2017-11-26T21:30:49.320Z,92.50
2017-11-26T21:33:16.911Z,92.60
2017-11-26T21:35:44.440Z,92.50
2017-11-26T21:38:11.976Z,92.60
2017-11-26T21:40:39.523Z,92.50
2017-11-26T21:43:07.839Z,92.60
2017-11-26T21:45:35.403Z,92.50
2017-11-26T21:48:03.728Z,92.30
2017-11-26T21:50:31.297Z,92.30
2017-11-26T21:52:59.612Z,92.20
2017-11-26T21:55:27.180Z,92.20
2017-11-26T21:57:54.733Z,92.30
2017-11-26T22:00:22.272Z,92.00
2017-11-26T22:02:49.822Z,92.10
2017-11-26T22:05:18.133Z,91.70
2017-11-26T22:07:45.671Z,91.70
2017-11-26T22:10:13.212Z,91.60
2017-11-26T22:12:41.595Z,91.40
2017-11-26T22:15:09.918Z,91.60
2017-11-26T22:17:37.700Z,91.60
2017-11-26T22:20:05.255Z,91.30
2017-11-26T22:22:32.834Z,91.20
2017-11-26T22:25:00.368Z,91.20
2017-11-26T22:27:28.687Z,91.10
2017-11-26T22:29:56.993Z,90.80
2017-11-26T22:32:24.573Z,90.80
2017-11-26T22:34:52.119Z,91.30
2017-11-26T22:37:19.652Z,90.70
2017-11-26T22:39:47.962Z,90.70
2017-11-26T22:42:15.503Z,90.70
2017-11-26T22:44:43.060Z,90.80
2017-11-26T22:47:10.600Z,90.80
2017-11-26T22:49:38.956Z,91.00
2017-11-26T22:52:06.487Z,91.00
2017-11-26T22:54:34.047Z,91.20
2017-11-26T22:57:01.591Z,91.20
2017-11-26T22:59:29.130Z,91.40
2017-11-26T23:01:57.427Z,91.40
2017-11-26T23:04:24.985Z,91.40
2017-11-26T23:06:52.528Z,91.30
2017-11-26T23:09:20.845Z,91.40
2017-11-26T23:11:48.386Z,91.40
2017-11-26T23:14:15.920Z,91.40
2017-11-26T23:16:44.245Z,91.40
2017-11-26T23:19:11.780Z,91.40
2017-11-26T23:21:39.346Z,91.50
2017-11-26T23:24:06.896Z,91.50
2017-11-26T23:26:34.444Z,91.50
2017-11-26T23:29:02.793Z,91.70
2017-11-26T23:31:30.346Z,91.70
2017-11-26T23:33:57.897Z,91.70
2017-11-26T23:36:25.444Z,91.60
2017-11-26T23:38:53.041Z,91.60
2017-11-26T23:41:20.610Z,91.70
2017-11-26T23:43:48.173Z,91.70
2017-11-26T23:46:16.484Z,91.30
2017-11-26T23:48:44.035Z,91.30
2017-11-26T23:51:11.580Z,91.30
2017-11-26T23:53:39.884Z,91.40
2017-11-26T23:56:07.414Z,91.30
2017-11-26T23:58:35.712Z,91.30
